createdAt,value
2023-03-17T00:02:14.531Z,50.50
2023-03-17T00:04:43.755Z,50.40
2023-03-17T00:07:16.415Z,50.40
2023-03-17T00:09:44.758Z,50.40
2023-03-17T00:12:13.950Z,50.40
2023-03-17T00:14:52.109Z,50.50
2023-03-17T00:17:32.598Z,50.50
2023-03-17T00:20:01.023Z,50.50
2023-03-17T00:22:29.283Z,50.50
2023-03-17T00:24:57.489Z,50.60
2023-03-17T00:27:25.661Z,50.60
2023-03-17T00:29:54.529Z,50.60
2023-03-17T00:32:26.616Z,50.60
2023-03-17T00:34:56.939Z,50.60
2023-03-17T00:37:26.311Z,50.70
2023-03-17T00:39:54.879Z,50.60
2023-03-17T00:42:23.240Z,50.60
2023-03-17T00:44:51.420Z,50.60
2023-03-17T00:47:20.080Z,50.60
2023-03-17T00:49:49.655Z,50.60
2023-03-17T00:52:19.202Z,50.60
2023-03-17T00:54:47.573Z,50.70
2023-03-17T00:57:19.354Z,50.70
2023-03-17T00:59:47.488Z,50.60
2023-03-17T01:02:15.800Z,50.60
2023-03-17T01:04:49.997Z,50.60
2023-03-17T01:07:24.208Z,50.60
2023-03-17T01:09:52.461Z,50.60
2023-03-17T01:12:21.238Z,50.60
2023-03-17T01:14:50.575Z,50.60
2023-03-17T01:17:19.655Z,50.60
2023-03-17T01:19:48.676Z,50.60
2023-03-17T01:22:22.456Z,50.60
2023-03-17T01:24:50.588Z,50.50
2023-03-17T01:27:22.045Z,50.50
2023-03-17T01:29:57.008Z,50.50
2023-03-17T01:32:26.170Z,50.50
2023-03-17T01:34:54.316Z,50.50
2023-03-17T01:37:24.067Z,50.50
2023-03-17T01:39:52.719Z,50.50
2023-03-17T01:42:21.159Z,50.50
2023-03-17T01:45:03.890Z,50.50
2023-03-17T01:47:35.047Z,50.50
2023-03-17T01:50:07.922Z,50.50
2023-03-17T01:52:41.524Z,50.50
2023-03-17T01:55:16.659Z,50.50
2023-03-17T01:57:50.722Z,50.50
2023-03-17T02:00:23.553Z,50.50
2023-03-17T02:02:59.278Z,50.50
2023-03-17T02:05:29.934Z,50.50
2023-03-17T02:07:59.916Z,50.50
2023-03-17T02:10:31.173Z,50.50
2023-03-17T02:13:05.453Z,50.50
2023-03-17T02:15:41.857Z,50.50
2023-03-17T02:18:12.647Z,50.50
2023-03-17T02:21:29.339Z,50.50
2023-03-17T02:23:58.581Z,50.50
2023-03-17T02:26:27.746Z,50.50
2023-03-17T02:28:55.856Z,50.50
2023-03-17T02:31:26.888Z,50.40
2023-03-17T02:33:55.600Z,50.40
2023-03-17T02:36:24.386Z,50.40
2023-03-17T02:38:56.683Z,50.40
2023-03-17T02:41:24.963Z,50.40
2023-03-17T02:43:53.764Z,50.40
2023-03-17T02:46:22.047Z,50.40
2023-03-17T02:48:51.378Z,50.40
2023-03-17T02:51:19.636Z,50.40
2023-03-17T02:53:47.850Z,50.40
2023-03-17T02:56:17.653Z,50.40
2023-03-17T02:58:46.502Z,50.40
2023-03-17T03:01:15.667Z,50.40
2023-03-17T03:03:43.936Z,50.40
2023-03-17T03:06:12.170Z,50.40
2023-03-17T03:08:40.657Z,50.30
2023-03-17T03:11:09.157Z,50.30
2023-03-17T03:13:39.051Z,50.30
2023-03-17T03:16:08.256Z,50.30
2023-03-17T03:18:37.384Z,50.30
2023-03-17T03:21:06.552Z,50.30
2023-03-17T03:23:36.512Z,50.30
2023-03-17T03:26:04.917Z,50.30
2023-03-17T03:28:33.492Z,50.30
2023-03-17T03:31:03.101Z,50.30
2023-03-17T03:33:31.387Z,50.30
2023-03-17T03:35:59.595Z,50.30
2023-03-17T03:38:28.117Z,50.30
2023-03-17T03:40:56.295Z,50.30
2023-03-17T03:43:26.805Z,50.30
2023-03-17T03:45:56.654Z,50.30
2023-03-17T03:48:26.563Z,50.30
2023-03-17T03:50:58.470Z,50.30
2023-03-17T03:53:27.053Z,50.30
2023-03-17T03:55:56.143Z,50.30
2023-03-17T03:58:25.699Z,50.30
2023-03-17T04:00:53.872Z,50.20
2023-03-17T04:03:22.125Z,50.30
2023-03-17T04:05:51.728Z,50.30
2023-03-17T04:08:21.053Z,50.20
2023-03-17T04:10:49.272Z,50.20
2023-03-17T04:13:17.510Z,50.20
2023-03-17T04:15:45.994Z,50.20
2023-03-17T04:18:14.172Z,50.20
2023-03-17T04:20:42.466Z,50.20
2023-03-17T04:23:14.261Z,50.20
2023-03-17T04:25:42.478Z,50.20
2023-03-17T04:28:10.934Z,50.20
2023-03-17T04:30:39.277Z,50.20
2023-03-17T04:33:07.488Z,50.10
2023-03-17T04:35:35.812Z,50.10
2023-03-17T04:38:04.231Z,50.10
2023-03-17T04:40:35.785Z,50.10
2023-03-17T04:43:03.942Z,50.10
2023-03-17T04:45:32.498Z,50.10
2023-03-17T04:48:00.751Z,50.10
2023-03-17T04:50:29.386Z,50.10
2023-03-17T04:53:01.504Z,50.10
2023-03-17T04:55:29.730Z,50.10
2023-03-17T04:57:59.271Z,50.10
2023-03-17T05:00:27.941Z,50.10
2023-03-17T05:02:56.654Z,50.10
2023-03-17T05:05:24.826Z,50.10
2023-03-17T05:07:53.037Z,50.00
2023-03-17T05:10:21.179Z,50.00
2023-03-17T05:12:49.322Z,50.00
2023-03-17T05:15:19.075Z,50.00
2023-03-17T05:17:47.671Z,50.00
2023-03-17T05:20:17.595Z,50.00
2023-03-17T05:22:46.529Z,50.00
2023-03-17T05:25:16.847Z,50.00
2023-03-17T05:27:44.971Z,50.00
2023-03-17T05:30:19.826Z,50.00
2023-03-17T05:32:50.142Z,50.00
2023-03-17T05:35:19.858Z,50.00
2023-03-17T05:37:49.429Z,50.00
2023-03-17T05:40:17.914Z,50.00
2023-03-17T05:42:46.328Z,50.00
2023-03-17T05:45:14.571Z,50.00
2023-03-17T05:47:44.719Z,50.00
2023-03-17T05:50:14.309Z,50.00
2023-03-17T05:52:42.540Z,50.00
2023-03-17T05:55:11.667Z,49.90
2023-03-17T05:57:39.806Z,49.90
2023-03-17T06:00:12.649Z,49.90
2023-03-17T06:05:39.412Z,50.20
2023-03-17T06:08:10.755Z,50.40
2023-03-17T06:10:39.765Z,50.50
2023-03-17T06:13:15.451Z,50.80
2023-03-17T06:15:44.682Z,50.80
2023-03-17T06:18:29.971Z,51.00
2023-03-17T06:20:59.564Z,51.00
2023-03-17T06:23:30.314Z,51.10
2023-03-17T06:25:58.786Z,51.20
2023-03-17T06:28:26.985Z,51.20
2023-03-17T06:30:55.168Z,51.20
2023-03-17T06:33:23.374Z,51.30
2023-03-17T06:35:54.545Z,51.30
2023-03-17T06:38:24.781Z,51.30
2023-03-17T06:40:53.726Z,51.30
2023-03-17T06:43:22.236Z,51.30
2023-03-17T06:45:50.491Z,51.30
2023-03-17T06:48:18.776Z,51.30
2023-03-17T06:50:47.809Z,51.30
2023-03-17T06:53:16.153Z,51.30
2023-03-17T06:55:46.084Z,51.30
2023-03-17T06:58:16.014Z,51.30
2023-03-17T07:01:03.226Z,51.30
2023-03-17T07:06:32.036Z,51.30
2023-03-17T07:09:04.147Z,51.30
2023-03-17T07:11:41.743Z,51.30
2023-03-17T07:16:55.842Z,51.30
2023-03-17T07:19:24.014Z,51.40
2023-03-17T07:21:52.135Z,51.50
2023-03-17T07:24:20.861Z,52.10
2023-03-17T07:26:50.744Z,52.30
2023-03-17T07:29:19.345Z,52.40
2023-03-17T07:31:48.273Z,52.40
2023-03-17T07:34:16.727Z,52.40
2023-03-17T07:36:45.643Z,52.40
2023-03-17T07:39:13.898Z,52.40
2023-03-17T07:41:42.837Z,52.50
2023-03-17T07:44:12.918Z,52.40
2023-03-17T07:46:41.122Z,52.50
2023-03-17T07:49:09.277Z,52.50
2023-03-17T07:51:38.428Z,52.50
2023-03-17T07:54:06.670Z,52.50
2023-03-17T07:56:34.860Z,52.50
2023-03-17T07:59:03.343Z,52.50
2023-03-17T08:01:32.887Z,52.40
2023-03-17T08:04:01.061Z,52.60
2023-03-17T08:06:30.166Z,52.50
2023-03-17T08:08:58.558Z,52.50
2023-03-17T08:11:29.231Z,52.40
2023-03-17T08:13:57.538Z,52.30
2023-03-17T08:16:26.194Z,52.40
2023-03-17T08:18:57.204Z,52.50
2023-03-17T08:21:25.458Z,52.50
2023-03-17T08:23:53.641Z,52.60
2023-03-17T08:26:23.868Z,52.50
2023-03-17T08:28:52.253Z,52.50
2023-03-17T08:31:22.737Z,52.50
2023-03-17T08:33:53.494Z,52.60
2023-03-17T08:36:23.943Z,52.50
2023-03-17T08:38:52.580Z,52.60
2023-03-17T08:41:23.789Z,52.60
2023-03-17T08:43:52.919Z,52.50
2023-03-17T08:46:23.052Z,52.50
2023-03-17T08:48:54.053Z,52.50
2023-03-17T08:51:25.538Z,52.40
2023-03-17T08:53:54.940Z,52.40
2023-03-17T08:56:23.953Z,52.50
2023-03-17T08:58:52.688Z,52.40
2023-03-17T09:01:22.698Z,52.40
2023-03-17T09:03:51.500Z,52.40
2023-03-17T09:06:20.279Z,52.40
2023-03-17T09:08:55.309Z,52.40
2023-03-17T09:11:26.152Z,52.40
2023-03-17T09:13:54.578Z,52.40
2023-03-17T09:16:24.377Z,52.50
2023-03-17T09:18:53.001Z,52.50
2023-03-17T09:21:21.462Z,52.50
2023-03-17T09:23:51.295Z,52.50
2023-03-17T09:26:20.154Z,52.40
2023-03-17T09:28:48.725Z,52.50
2023-03-17T09:31:16.915Z,52.50
2023-03-17T09:33:45.541Z,52.50
2023-03-17T09:36:14.255Z,52.50
2023-03-17T09:38:42.490Z,52.50
2023-03-17T09:41:32.701Z,52.40
2023-03-17T09:44:12.956Z,52.60
2023-03-17T09:46:51.061Z,52.40
2023-03-17T09:49:22.840Z,51.40
2023-03-17T09:51:51.565Z,51.30
2023-03-17T09:54:26.957Z,51.10
2023-03-17T09:57:06.105Z,51.00
2023-03-17T09:59:36.916Z,51.00
2023-03-17T10:02:18.693Z,50.90
2023-03-17T10:04:48.083Z,50.80
2023-03-17T10:07:21.863Z,50.80
2023-03-17T10:10:20.894Z,50.80
2023-03-17T10:12:57.960Z,50.90
2023-03-17T10:15:34.717Z,50.90
2023-03-17T10:18:09.448Z,50.80
2023-03-17T10:20:45.552Z,50.80
2023-03-17T10:23:17.105Z,50.70
2023-03-17T10:25:45.279Z,50.70
2023-03-17T10:28:29.824Z,50.60
2023-03-17T10:31:10.489Z,50.50
2023-03-17T10:33:38.867Z,50.40
2023-03-17T10:36:11.177Z,50.70
2023-03-17T10:38:39.387Z,50.40
2023-03-17T10:41:10.402Z,50.40
2023-03-17T10:43:44.652Z,50.30
2023-03-17T10:46:21.556Z,50.40
2023-03-17T10:48:54.957Z,50.40
2023-03-17T10:51:29.667Z,50.40
2023-03-17T10:54:01.734Z,50.40
2023-03-17T10:56:34.293Z,50.20
2023-03-17T10:59:10.084Z,49.80
2023-03-17T11:01:41.517Z,49.80
2023-03-17T11:04:29.536Z,49.60
2023-03-17T11:06:59.271Z,49.60
2023-03-17T11:09:29.254Z,49.40
2023-03-17T11:12:03.598Z,49.20
2023-03-17T11:14:33.629Z,48.80
2023-03-17T11:17:03.679Z,48.60
2023-03-17T11:19:43.313Z,48.80
2023-03-17T11:22:15.662Z,48.70
2023-03-17T11:24:56.484Z,48.60
2023-03-17T11:27:31.659Z,48.60
2023-03-17T11:30:18.588Z,48.50
2023-03-17T11:32:56.775Z,48.50
2023-03-17T11:35:51.445Z,48.40
2023-03-17T11:38:26.012Z,48.40
2023-03-17T11:41:31.689Z,48.30
2023-03-17T11:44:15.426Z,48.40
2023-03-17T11:46:49.001Z,48.50
2023-03-17T11:49:22.945Z,48.40
2023-03-17T11:52:00.842Z,48.30
2023-03-17T11:54:36.975Z,48.30
2023-03-17T11:57:10.493Z,48.30
2023-03-17T11:59:42.401Z,48.10
2023-03-17T12:02:21.642Z,48.20
2023-03-17T12:04:55.661Z,48.30
2023-03-17T12:07:26.938Z,48.20
2023-03-17T12:10:04.585Z,48.20
2023-03-17T12:12:38.694Z,48.20
2023-03-17T12:15:13.348Z,48.30
2023-03-17T12:17:51.095Z,48.20
2023-03-17T12:20:23.058Z,48.20
2023-03-17T12:23:01.413Z,48.30
2023-03-17T12:25:34.065Z,48.20
2023-03-17T12:28:08.613Z,48.20
2023-03-17T12:30:45.556Z,48.20
2023-03-17T12:36:31.284Z,48.30
2023-03-17T12:39:05.352Z,48.30
2023-03-17T12:42:10.009Z,48.40
2023-03-17T12:44:56.266Z,48.50
2023-03-17T12:50:44.960Z,48.40
2023-03-17T12:53:27.805Z,48.40
2023-03-17T12:56:00.161Z,48.20
2023-03-17T12:58:33.392Z,48.20
2023-03-17T13:01:10.200Z,48.20
2023-03-17T13:03:46.798Z,48.10
2023-03-17T13:06:22.522Z,48.00
2023-03-17T13:08:53.159Z,48.00
2023-03-17T13:11:29.564Z,47.90
2023-03-17T13:14:15.344Z,47.90
2023-03-17T13:16:46.836Z,47.90
2023-03-17T13:19:22.614Z,48.00
2023-03-17T13:21:58.948Z,48.10
2023-03-17T13:24:46.952Z,48.10
2023-03-17T13:27:36.397Z,48.10
2023-03-17T13:30:37.762Z,48.20
2023-03-17T13:33:23.250Z,48.30
2023-03-17T13:36:23.697Z,48.40
2023-03-17T13:39:20.526Z,48.40
2023-03-17T13:42:18.925Z,48.40
2023-03-17T13:45:17.610Z,48.50
2023-03-17T13:47:47.176Z,48.60
2023-03-17T13:50:17.697Z,48.60
2023-03-17T13:52:50.413Z,48.70
2023-03-17T13:55:38.747Z,48.70
2023-03-17T13:58:35.110Z,49.00
2023-03-17T14:01:10.253Z,49.10
2023-03-17T14:03:47.509Z,49.30
2023-03-17T14:06:17.053Z,49.40
2023-03-17T14:08:48.811Z,49.50
2023-03-17T14:11:25.266Z,49.40
2023-03-17T14:14:05.963Z,49.60
2023-03-17T14:16:37.597Z,49.60
2023-03-17T14:19:18.875Z,49.60
2023-03-17T14:21:47.130Z,49.80
2023-03-17T14:24:24.120Z,49.80
2023-03-17T14:26:54.123Z,49.90
2023-03-17T14:29:27.871Z,49.90
2023-03-17T14:32:04.744Z,50.00
2023-03-17T14:34:33.162Z,50.40
2023-03-17T14:37:05.690Z,50.50
2023-03-17T14:39:33.859Z,50.60
2023-03-17T14:42:06.365Z,50.50
2023-03-17T14:44:38.640Z,50.60
2023-03-17T14:47:14.702Z,50.60
2023-03-17T14:49:43.057Z,50.60
2023-03-17T14:52:20.072Z,50.50
2023-03-17T14:54:52.478Z,50.60
2023-03-17T14:57:24.639Z,50.60
2023-03-17T15:00:01.013Z,50.60
2023-03-17T15:02:34.302Z,50.70
2023-03-17T15:05:06.709Z,50.70
2023-03-17T15:07:39.732Z,50.80
2023-03-17T15:10:16.506Z,50.80
2023-03-17T15:12:47.324Z,50.80
2023-03-17T15:15:23.763Z,50.90
2023-03-17T15:17:53.223Z,51.00
2023-03-17T15:20:21.571Z,51.00
2023-03-17T15:22:56.695Z,51.10
2023-03-17T15:25:28.945Z,51.30
2023-03-17T15:27:58.903Z,51.30
2023-03-17T15:30:31.646Z,51.20
2023-03-17T15:33:02.269Z,51.40
2023-03-17T15:35:30.539Z,51.50
2023-03-17T15:37:58.760Z,51.20
2023-03-17T15:40:26.894Z,50.50
2023-03-17T15:42:55.278Z,50.30
2023-03-17T15:45:24.785Z,50.30
2023-03-17T15:47:53.266Z,50.40
2023-03-17T15:50:25.004Z,50.50
2023-03-17T15:52:55.876Z,50.60
2023-03-17T15:55:26.311Z,50.50
2023-03-17T15:57:55.703Z,50.60
2023-03-17T16:00:30.562Z,50.70
2023-03-17T16:03:02.131Z,50.50
2023-03-17T16:05:32.893Z,50.50
2023-03-17T16:08:01.016Z,50.50
2023-03-17T16:10:31.835Z,50.50
2023-03-17T16:13:00.459Z,50.50
2023-03-17T16:15:32.659Z,50.60
2023-03-17T16:18:04.188Z,50.60
2023-03-17T16:20:37.296Z,50.40
2023-03-17T16:23:08.684Z,50.30
2023-03-17T16:25:38.512Z,50.20
2023-03-17T16:28:16.076Z,50.20
2023-03-17T16:30:47.141Z,50.10
2023-03-17T16:33:18.758Z,50.10
2023-03-17T16:35:48.592Z,50.10
2023-03-17T16:38:19.023Z,50.10
2023-03-17T16:40:49.051Z,50.10
2023-03-17T16:43:25.837Z,50.10
2023-03-17T16:45:58.217Z,50.10
2023-03-17T16:48:27.298Z,50.20
2023-03-17T16:50:55.912Z,50.20
2023-03-17T16:53:24.870Z,50.20
2023-03-17T16:55:54.229Z,50.20
2023-03-17T16:58:24.513Z,50.30
2023-03-17T17:00:56.438Z,50.40
2023-03-17T17:03:24.614Z,50.40
2023-03-17T17:05:52.904Z,50.40
2023-03-17T17:08:21.106Z,50.40
2023-03-17T17:10:49.313Z,50.50
2023-03-17T17:13:17.657Z,50.50
2023-03-17T17:15:46.353Z,50.50
2023-03-17T17:18:17.669Z,50.50
2023-03-17T17:20:46.704Z,50.60
2023-03-17T17:23:17.267Z,50.60
2023-03-17T17:25:45.761Z,50.60
2023-03-17T17:28:16.317Z,50.60
2023-03-17T17:30:47.825Z,50.60
2023-03-17T17:33:18.215Z,50.60
2023-03-17T17:35:46.874Z,50.60
2023-03-17T17:38:19.888Z,50.60
2023-03-17T17:40:48.814Z,50.70
2023-03-17T17:43:19.061Z,50.70
2023-03-17T17:45:49.498Z,50.70
2023-03-17T17:48:22.447Z,50.70
2023-03-17T17:50:51.363Z,50.70
2023-03-17T17:53:20.143Z,50.70
2023-03-17T17:55:49.925Z,50.70
2023-03-17T17:58:20.480Z,50.70
2023-03-17T18:00:48.947Z,50.80
2023-03-17T18:03:22.193Z,50.80
2023-03-17T18:05:50.429Z,50.80
2023-03-17T18:08:18.511Z,50.80
2023-03-17T18:10:46.601Z,50.80
2023-03-17T18:13:14.699Z,50.70
2023-03-17T18:15:42.855Z,50.70
2023-03-17T18:18:10.996Z,50.70
2023-03-17T18:20:40.798Z,50.70
2023-03-17T18:23:09.308Z,50.70
2023-03-17T18:25:37.521Z,50.70
2023-03-17T18:28:06.292Z,50.70
2023-03-17T18:30:35.663Z,50.80
2023-03-17T18:33:07.664Z,50.90
2023-03-17T18:35:36.053Z,51.00
2023-03-17T18:38:05.716Z,51.10
2023-03-17T18:40:34.206Z,51.10
2023-03-17T18:43:02.520Z,51.20
2023-03-17T18:45:30.645Z,51.30
2023-03-17T18:47:58.966Z,51.30
2023-03-17T18:50:27.348Z,51.40
2023-03-17T18:52:55.899Z,51.40
2023-03-17T18:55:25.513Z,51.40
2023-03-17T18:57:54.561Z,51.40
2023-03-17T19:00:25.309Z,51.40
2023-03-17T19:02:54.052Z,51.40
2023-03-17T19:05:22.433Z,51.40
2023-03-17T19:07:50.577Z,51.40
2023-03-17T19:10:19.053Z,51.40
2023-03-17T19:12:48.622Z,51.40
2023-03-17T19:15:17.708Z,51.50
2023-03-17T19:17:45.889Z,51.50
2023-03-17T19:20:15.343Z,51.50
2023-03-17T19:22:43.899Z,51.40
2023-03-17T19:25:12.692Z,51.40
2023-03-17T19:27:41.514Z,51.40
2023-03-17T19:30:12.956Z,51.40
2023-03-17T19:32:41.447Z,51.50
2023-03-17T19:35:10.105Z,51.50
2023-03-17T19:37:38.299Z,51.50
2023-03-17T19:40:08.487Z,51.50
2023-03-17T19:42:36.745Z,51.50
2023-03-17T19:45:06.326Z,51.50
2023-03-17T19:47:36.972Z,51.60
2023-03-17T19:50:05.731Z,51.60
2023-03-17T19:52:33.943Z,51.60
2023-03-17T19:55:02.128Z,51.60
2023-03-17T19:57:31.197Z,51.60
2023-03-17T19:59:59.404Z,51.60
2023-03-17T20:02:27.580Z,51.60
2023-03-17T20:04:57.147Z,51.70
2023-03-17T20:07:25.491Z,51.70
2023-03-17T20:09:54.098Z,51.80
2023-03-17T20:12:22.427Z,51.80
2023-03-17T20:14:50.709Z,51.80
2023-03-17T20:17:19.454Z,51.80
2023-03-17T20:19:47.573Z,51.90
2023-03-17T20:22:17.134Z,51.90
2023-03-17T20:24:45.761Z,52.00
2023-03-17T20:27:15.415Z,52.00
2023-03-17T20:29:43.951Z,52.00
2023-03-17T20:32:14.836Z,52.20
2023-03-17T20:34:43.652Z,52.20
2023-03-17T20:37:14.146Z,52.20
2023-03-17T20:39:44.035Z,52.20
2023-03-17T20:42:14.347Z,52.20
2023-03-17T20:44:42.986Z,52.20
2023-03-17T20:47:11.427Z,52.30
2023-03-17T20:49:39.563Z,52.30
2023-03-17T20:52:11.932Z,52.30
2023-03-17T20:54:40.444Z,52.30
2023-03-17T20:57:11.370Z,52.30
2023-03-17T20:59:39.744Z,52.40
2023-03-17T21:02:12.297Z,52.40
2023-03-17T21:04:41.492Z,52.50
2023-03-17T21:07:09.661Z,52.50
2023-03-17T21:09:38.031Z,52.50
2023-03-17T21:12:06.264Z,52.50
2023-03-17T21:14:35.785Z,52.50
2023-03-17T21:17:03.946Z,52.50
2023-03-17T21:19:32.285Z,52.50
2023-03-17T21:22:00.354Z,52.50
2023-03-17T21:24:31.884Z,52.60
2023-03-17T21:27:00.852Z,52.60
2023-03-17T21:29:30.272Z,52.60
2023-03-17T21:32:00.990Z,52.70
2023-03-17T21:34:30.176Z,52.60
2023-03-17T21:36:58.892Z,52.60
2023-03-17T21:39:29.692Z,52.70
2023-03-17T21:41:58.676Z,52.70
2023-03-17T21:44:26.833Z,52.70
2023-03-17T21:46:56.448Z,52.70
2023-03-17T21:49:25.957Z,52.70
2023-03-17T21:51:54.723Z,52.70
2023-03-17T21:54:23.241Z,52.80
2023-03-17T21:56:51.492Z,52.80
2023-03-17T21:59:20.954Z,52.80
2023-03-17T22:01:51.971Z,52.80
2023-03-17T22:04:20.304Z,52.80
2023-03-17T22:06:49.801Z,52.80
2023-03-17T22:09:19.254Z,52.70
2023-03-17T22:11:47.495Z,52.70
2023-03-17T22:14:19.870Z,52.70
2023-03-17T22:16:48.718Z,52.60
2023-03-17T22:19:20.639Z,52.60
2023-03-17T22:21:51.709Z,52.50
2023-03-17T22:24:20.480Z,52.50
2023-03-17T22:26:49.180Z,52.50
2023-03-17T22:29:17.342Z,52.50
2023-03-17T22:31:45.700Z,52.40
2023-03-17T22:34:13.883Z,52.40
2023-03-17T22:36:42.191Z,52.40
2023-03-17T22:39:11.881Z,52.40
2023-03-17T22:41:40.666Z,52.40
2023-03-17T22:44:10.193Z,52.40
2023-03-17T22:46:40.792Z,52.30
2023-03-17T22:49:09.550Z,52.30
2023-03-17T22:51:38.333Z,52.30
2023-03-17T22:54:06.508Z,52.30
2023-03-17T22:56:38.087Z,52.30
2023-03-17T22:59:06.690Z,52.20
2023-03-17T23:01:35.665Z,52.20
2023-03-17T23:04:03.992Z,52.20
2023-03-17T23:06:32.288Z,52.10
2023-03-17T23:09:00.630Z,52.10
2023-03-17T23:11:29.187Z,52.10
2023-03-17T23:13:58.658Z,52.10
2023-03-17T23:16:27.197Z,52.00
2023-03-17T23:18:55.627Z,52.00
2023-03-17T23:21:27.689Z,52.00
2023-03-17T23:23:56.350Z,52.00
2023-03-17T23:26:24.534Z,52.00
2023-03-17T23:28:52.884Z,52.00
2023-03-17T23:31:22.634Z,52.00
2023-03-17T23:33:51.704Z,52.00
2023-03-17T23:36:20.068Z,52.00
2023-03-17T23:38:48.629Z,52.00
2023-03-17T23:41:17.662Z,52.00
2023-03-17T23:43:46.780Z,52.00
2023-03-17T23:46:15.220Z,52.00
2023-03-17T23:48:44.892Z,52.00
2023-03-17T23:51:14.405Z,52.00
2023-03-17T23:53:42.952Z,52.00
2023-03-17T23:56:13.082Z,52.00
2023-03-17T23:58:42.396Z,52.00
